Time;durP1;ratioP1;P1;durP2;ratioP2;P2;SDS_P1;SDS_P2;PMS_P1;PMS_P2;Temp;Humidity;BMP_temperature;BMP_pressure;BME280_temperature;BME280_humidity;BME280_pressure;Samples;Min_cycle;Max_cycle;Signal;HPM_P1;HPM_P2
2022/05/01 00:00:13;;;;;;;12.38;7.68;;;;;;;19.28;49.18;102384.84;5079548;28;20041;-56
2022/05/01 00:02:38;;;;;;;16.60;8.40;;;;;;;19.37;49.13;102384.59;5091377;28;20096;-55
2022/05/01 00:05:04;;;;;;;16.00;8.23;;;;;;;19.42;48.98;102388.31;5084697;28;20303;-53
2022/05/01 00:07:30;;;;;;;14.73;8.05;;;;;;;19.36;48.92;102386.47;5084525;28;20032;-53
2022/05/01 00:09:55;;;;;;;15.65;9.13;;;;;;;19.39;48.97;102377.09;5090228;28;20112;-53
2022/05/01 00:12:22;;;;;;;13.90;8.88;;;;;;;19.38;49.34;102378.13;5079035;28;20036;-49
2022/05/01 00:14:48;;;;;;;;;;;;;;;19.43;49.25;102378.31;5089507;28;20075;-54
2022/05/01 00:17:13;;;;;;;16.43;7.80;;;;;;;19.40;49.26;102378.75;5085459;28;19912;-54
2022/05/01 00:19:38;;;;;;;17.43;9.23;;;;;;;19.39;49.25;102377.09;5083193;28;20052;-54
2022/05/01 00:22:04;;;;;;;19.13;9.13;;;;;;;19.28;49.70;102382.13;5092240;28;20070;-56
2022/05/01 00:24:29;;;;;;;18.80;8.73;;;;;;;19.31;50.12;102380.88;5074781;28;20064;-54
2022/05/01 00:26:55;;;;;;;14.00;8.60;;;;;;;19.33;49.87;102370.63;5082779;28;20119;-52
2022/05/01 00:29:20;;;;;;;13.93;8.63;;;;;;;19.18;50.69;102371.75;5084555;28;20033;-53
2022/05/01 00:31:46;;;;;;;15.70;8.73;;;;;;;19.15;50.73;102371.38;5089624;28;20095;-53
2022/05/01 00:36:56;;;;;;;16.95;8.65;;;;;;;19.32;50.58;102372.50;5088904;28;20342;-55
2022/05/01 00:39:23;;;;;;;17.27;8.27;;;;;;;19.29;50.56;102367.53;5075438;28;20033;-53
2022/05/01 00:41:48;;;;;;;17.50;10.20;;;;;;;19.24;50.89;102361.91;5089435;28;20062;-55
2022/05/01 00:44:16;;;;;;;16.85;9.90;;;;;;;19.13;51.35;102370.72;5078739;28;20079;-52
2022/05/01 00:46:45;;;;;;;15.35;9.23;;;;;;;19.17;51.01;102363.84;5090548;28;20049;-50
2022/05/01 00:49:14;;;;;;;19.60;9.38;;;;;;;17.84;55.27;102361.13;5084220;28;20044;-52
2022/05/01 00:51:58;;;;;;;17.60;9.15;;;;;;;17.58;57.32;102358.19;5082665;28;20056;-54
2022/05/01 00:54:27;;;;;;;15.55;9.00;;;;;;;17.51;58.54;102362.72;5091822;28;20043;-57
2022/05/01 00:57:00;;;;;;;16.17;8.57;;;;;;;17.43;59.49;102365.63;5081647;28;20047;-53
2022/05/01 00:59:27;;;;;;;22.50;9.27;;;;;;;17.44;60.17;102367.31;5084150;28;20047;-57
2022/05/01 01:01:53;;;;;;;14.38;8.80;;;;;;;17.36;60.72;102360.22;5089882;28;20025;-53
2022/05/01 01:04:19;;;;;;;14.57;9.20;;;;;;;17.29;61.53;102353.97;5078175;28;20053;-55
2022/05/01 01:06:45;;;;;;;18.97;9.30;;;;;;;17.27;62.03;102356.84;5089874;28;20036;-54
2022/05/01 01:09:12;;;;;;;17.15;9.48;;;;;;;17.22;62.82;102350.41;5083793;28;20368;-55
2022/05/01 01:11:38;;;;;;;23.48;11.30;;;;;;;17.30;62.66;102351.06;5082605;28;20032;-52
2022/05/01 01:14:05;;;;;;;21.10;12.05;;;;;;;17.30;62.63;102353.75;5080765;28;20055;-51
2022/05/01 01:16:32;;;;;;;22.15;11.45;;;;;;;17.30;62.85;102351.06;5077880;28;20101;-53
2022/05/01 01:18:58;;;;;;;16.83;11.02;;;;;;;17.20;63.64;102354.16;5093304;28;20047;-54
2022/05/01 01:21:24;;;;;;;19.20;10.80;;;;;;;17.15;64.26;102358.50;5083802;28;20040;-49
2022/05/01 01:23:52;;;;;;;16.52;10.48;;;;;;;17.02;66.01;102360.09;5074328;28;20036;-54
2022/05/01 01:26:17;;;;;;;19.27;11.07;;;;;;;17.00;66.24;102362.16;5090641;28;20075;-55
2022/05/01 01:28:43;;;;;;;25.00;12.10;;;;;;;16.96;67.11;102352.75;5079651;28;20048;-52
2022/05/01 01:33:59;;;;;;;22.65;11.35;;;;;;;16.77;68.72;102352.47;5088943;28;20066;-55
2022/05/01 01:36:28;;;;;;;18.25;11.13;;;;;;;16.77;69.28;102352.47;5077902;28;20049;-52
2022/05/01 01:38:55;;;;;;;21.40;11.45;;;;;;;16.72;69.64;102351.38;5088018;28;20028;-55
2022/05/01 01:41:24;;;;;;;18.17;11.35;;;;;;;16.66;70.90;102352.19;5084619;28;20062;-50
2022/05/01 01:43:50;;;;;;;21.42;11.43;;;;;;;16.52;71.46;102353.97;5080032;28;20037;-53
2022/05/01 01:46:17;;;;;;;27.42;12.15;;;;;;;16.44;72.31;102349.56;5090446;28;20078;-55
2022/05/01 01:48:45;;;;;;;23.08;11.63;;;;;;;16.16;75.96;102345.88;5078739;28;20040;-55
2022/05/01 01:51:11;;;;;;;23.10;11.65;;;;;;;16.11;76.50;102340.22;5085813;28;20047;-56
2022/05/01 01:53:37;;;;;;;21.73;11.83;;;;;;;16.03;77.56;102333.13;5086462;28;20048;-55
2022/05/01 01:56:04;;;;;;;18.52;11.30;;;;;;;16.03;78.20;102341.22;5078258;28;20278;-55
2022/05/01 01:58:30;;;;;;;20.50;11.75;;;;;;;16.01;78.36;102337.03;5090544;28;20033;-53
2022/05/01 02:00:56;;;;;;;;;;;;;;;15.89;79.68;102340.22;5081258;28;20047;-54
2022/05/01 02:03:23;;;;;;;21.38;10.70;;;;;;;15.90;79.89;102343.78;5083985;28;19923;-52
2022/05/01 02:05:49;;;;;;;24.33;12.07;;;;;;;15.80;80.86;102340.53;5088032;28;20029;-55
2022/05/01 02:08:16;;;;;;;19.30;11.48;;;;;;;15.81;81.04;102334.97;5077053;28;20045;-54
2022/05/01 02:10:49;;;;;;;16.70;11.15;;;;;;;15.77;81.60;102339.06;5089410;28;20043;-54
2022/05/01 02:13:16;;;;;;;23.52;11.70;;;;;;;15.69;82.41;102333.81;5072038;28;20036;-54
2022/05/01 02:15:42;;;;;;;21.30;11.75;;;;;;;15.74;82.68;102336.75;5081099;28;20029;-56
2022/05/01 02:18:07;;;;;;;20.75;12.35;;;;;;;15.57;82.93;102331.63;5090259;28;20039;-50
2022/05/01 02:23:21;;;;;;;21.75;11.15;;;;;;;15.53;84.74;102335.75;5083950;28;20036;-54
2022/05/01 02:25:48;;;;;;;22.17;11.32;;;;;;;15.78;85.10;102335.34;5087236;28;20064;-53
2022/05/01 02:28:14;;;;;;;25.95;12.02;;;;;;;15.80;79.98;102330.59;5076842;28;20040;-54
2022/05/01 02:30:40;;;;;;;26.48;11.75;;;;;;;15.31;86.26;102327.63;5089614;28;20032;-55
2022/05/01 02:33:07;;;;;;;18.15;11.00;;;;;;;15.28;87.44;102328.00;5075752;28;20037;-54
2022/05/01 02:35:33;;;;;;;;;;;;;;;15.38;86.03;102325.00;5089891;28;20040;-56
2022/05/01 02:37:59;;;;;;;22.20;12.63;;;;;;;15.43;84.79;102324.41;5082765;28;19919;-55
2022/05/01 02:40:26;;;;;;;30.95;12.57;;;;;;;15.31;85.92;102327.63;5094453;28;20229;-53
2022/05/01 02:42:52;;;;;;;28.73;13.77;;;;;;;15.05;89.19;102320.91;5083684;28;20096;-56
2022/05/01 02:45:18;;;;;;;22.70;13.07;;;;;;;14.90;92.23;102312.03;5088403;28;20035;-51
2022/05/01 02:47:43;;;;;;;23.67;12.57;;;;;;;14.83;93.98;102317.31;5090451;28;20053;-51
2022/05/01 02:50:10;;;;;;;21.55;12.77;;;;;;;15.37;91.43;102317.97;5081187;28;20081;-52
2022/05/01 02:52:35;;;;;;;30.30;13.88;;;;;;;14.82;93.35;102307.56;5064883;28;20039;-52
2022/05/01 02:55:01;;;;;;;24.15;12.18;;;;;;;14.64;96.48;102310.63;5089960;28;20049;-53
2022/05/01 02:57:27;;;;;;;20.63;12.07;;;;;;;14.66;96.31;102308.56;5088083;28;20047;-53
2022/05/01 02:59:53;;;;;;;22.27;13.73;;;;;;;14.62;96.99;102310.81;5083242;28;20045;-55
2022/05/01 03:02:18;;;;;;;28.53;13.63;;;;;;;14.61;97.27;102300.22;5093959;28;20042;-56
2022/05/01 03:04:45;;;;;;;25.37;13.63;;;;;;;14.74;95.46;102305.81;5077541;28;20029;-52
2022/05/01 03:07:12;;;;;;;26.35;13.15;;;;;;;14.77;94.51;102310.84;5085107;28;20036;-51
2022/05/01 03:09:38;;;;;;;25.10;13.18;;;;;;;14.86;93.16;102302.66;5085481;28;20045;-54
2022/05/01 03:12:05;;;;;;;31.02;14.82;;;;;;;14.70;94.11;102304.50;5092699;28;20476;-55
2022/05/01 03:14:31;;;;;;;33.90;14.35;;;;;;;14.77;92.98;102299.22;5077801;28;20060;-51
2022/05/01 03:16:57;;;;;;;25.55;13.98;;;;;;;14.79;91.43;102302.56;5083504;28;20033;-54
2022/05/01 03:22:11;;;;;;;29.05;14.73;;;;;;;14.46;97.40;102295.69;5093040;28;20037;-55
2022/05/01 03:24:38;;;;;;;30.00;14.65;;;;;;;14.47;97.50;102294.66;5077029;28;20021;-56
2022/05/01 03:27:04;;;;;;;26.38;15.15;;;;;;;14.39;98.98;102291.22;5084368;28;20089;-54
2022/05/01 03:29:30;;;;;;;33.55;14.80;;;;;;;14.32;100.00;102291.16;5086203;28;20044;-53
2022/05/01 03:31:55;;;;;;;31.13;15.20;;;;;;;14.20;100.00;102288.91;5091225;28;20063;-56
2022/05/01 03:34:22;;;;;;;29.90;14.83;;;;;;;14.08;100.00;102297.59;5080237;28;20044;-52
2022/05/01 03:36:48;;;;;;;33.05;15.75;;;;;;;14.05;100.00;102296.09;5091868;28;20084;-54
2022/05/01 03:39:15;;;;;;;35.10;15.60;;;;;;;14.13;100.00;102292.50;5076872;28;20059;-53
2022/05/01 03:41:41;;;;;;;30.92;16.05;;;;;;;14.07;100.00;102290.56;5089089;28;20036;-52
2022/05/01 03:44:07;;;;;;;26.70;15.27;;;;;;;14.04;100.00;102284.53;5080656;28;20071;-51
2022/05/01 03:46:34;;;;;;;31.67;15.77;;;;;;;14.07;100.00;102283.34;5079468;28;20040;-57
2022/05/01 03:48:59;;;;;;;29.17;15.68;;;;;;;13.94;100.00;102283.13;5090084;28;20478;-54
2022/05/01 03:51:25;;;;;;;30.05;17.27;;;;;;;13.85;100.00;102283.19;5086642;28;20032;-53
2022/05/01 03:53:52;;;;;;;;;;;;;;;13.75;100.00;102283.44;5083201;28;20140;-55
2022/05/01 03:56:17;;;;;;;36.43;16.53;;;;;;;13.81;100.00;102286.41;5092725;28;19912;-54
2022/05/01 03:58:42;;;;;;;30.83;16.10;;;;;;;13.76;100.00;102290.50;5076372;28;20025;-54
2022/05/01 04:01:08;;;;;;;28.30;16.33;;;;;;;13.71;100.00;102294.75;5082318;28;20092;-57
2022/05/01 04:03:33;;;;;;;37.07;17.00;;;;;;;13.60;100.00;102285.25;5076393;28;20040;-55
2022/05/01 04:05:59;;;;;;;35.08;16.85;;;;;;;13.67;100.00;102285.38;5076101;28;20536;-52
2022/05/01 04:08:24;;;;;;;31.13;16.70;;;;;;;13.67;100.00;102294.25;5094567;28;20033;-53
2022/05/01 04:10:50;;;;;;;36.23;17.83;;;;;;;13.67;100.00;102288.06;5091277;28;20033;-55
2022/05/01 04:13:15;;;;;;;33.93;16.13;;;;;;;13.67;100.00;102288.88;5084524;28;20300;-55
2022/05/01 04:15:41;;;;;;;29.70;16.73;;;;;;;13.64;100.00;102285.72;5084534;28;20037;-54
2022/05/01 04:18:08;;;;;;;29.27;15.52;;;;;;;13.74;100.00;102284.47;5091765;28;20036;-54
2022/05/01 04:20:38;;;;;;;35.20;17.27;;;;;;;13.73;100.00;102282.78;5079101;28;20036;-52
2022/05/01 04:23:07;;;;;;;31.25;16.65;;;;;;;13.64;100.00;102285.72;5089063;28;20025;-55
2022/05/01 04:25:34;;;;;;;32.63;17.67;;;;;;;13.61;100.00;102290.47;5075975;28;20125;-54
2022/05/01 04:28:02;;;;;;;37.28;16.80;;;;;;;13.57;100.00;102291.81;5090185;28;20048;-52
2022/05/01 04:30:31;;;;;;;30.27;16.45;;;;;;;13.38;100.00;102289.56;5079161;28;20041;-54
2022/05/01 04:32:59;;;;;;;28.33;16.17;;;;;;;13.52;100.00;102286.13;5090162;28;20059;-52
2022/05/01 04:35:31;;;;;;;31.40;16.30;;;;;;;13.55;100.00;102291.16;5085338;28;20037;-55
2022/05/01 04:38:01;;;;;;;30.45;15.23;;;;;;;13.63;100.00;102290.25;5081578;28;20028;-55
2022/05/01 04:40:29;;;;;;;33.65;17.05;;;;;;;13.53;100.00;102289.69;5077394;28;20033;-56
2022/05/01 04:43:04;;;;;;;28.40;15.85;;;;;;;13.65;100.00;102295.47;5089976;28;20028;-51
2022/05/01 04:45:31;;;;;;;37.40;18.58;;;;;;;13.55;100.00;102293.84;5075549;28;20037;-54
2022/05/01 04:47:57;;;;;;;34.65;17.67;;;;;;;14.49;100.00;102303.38;5089696;28;20062;-56
2022/05/01 04:50:23;;;;;;;31.42;16.75;;;;;;;14.91;94.29;102302.91;5078633;28;20108;-51
2022/05/01 04:52:48;;;;;;;30.47;17.10;;;;;;;15.05;91.20;102296.66;5091107;28;20028;-51
2022/05/01 04:55:13;;;;;;;35.13;17.10;;;;;;;13.99;100.00;102296.84;5083002;28;20032;-49
2022/05/01 04:57:39;;;;;;;28.63;16.13;;;;;;;13.72;100.00;102291.03;5083645;28;20032;-55
2022/05/01 05:00:07;;;;;;;34.72;17.08;;;;;;;13.73;100.00;102300.75;5075349;28;20059;-56
2022/05/01 05:02:37;;;;;;;30.35;16.38;;;;;;;13.73;100.00;102296.25;5091541;28;20043;-56
2022/05/01 05:05:04;;;;;;;35.13;18.13;;;;;;;13.70;100.00;102301.13;5081759;28;20040;-54
2022/05/01 05:07:31;;;;;;;33.85;16.65;;;;;;;13.73;100.00;102300.75;5084817;28;20052;-55
2022/05/01 05:09:57;;;;;;;30.73;16.17;;;;;;;13.78;100.00;102311.81;5089117;28;20062;-52
2022/05/01 05:12:23;;;;;;;34.53;17.63;;;;;;;13.82;100.00;102306.91;5078079;28;20040;-54
2022/05/01 05:14:52;;;;;;;30.43;17.40;;;;;;;13.91;100.00;102306.66;5090538;28;20088;-53
2022/05/01 05:17:19;;;;;;;36.75;18.00;;;;;;;13.93;100.00;102313.72;5082096;28;20025;-54
2022/05/01 05:19:46;;;;;;;34.92;18.27;;;;;;;14.82;100.00;102312.94;5082371;28;20059;-51
2022/05/01 05:22:11;;;;;;;34.78;18.80;;;;;;;14.36;100.00;102308.59;5090773;28;20036;-53
2022/05/01 05:24:36;;;;;;;34.53;16.70;;;;;;;14.31;100.00;102316.38;5075204;28;20108;-55
2022/05/01 05:27:03;;;;;;;32.10;16.75;;;;;;;15.00;95.93;102314.41;5080520;28;20261;-51
2022/05/01 05:29:29;;;;;;;31.20;16.75;;;;;;;14.23;100.00;102319.13;5084405;28;20057;-55
2022/05/01 05:31:54;;;;;;;31.87;16.60;;;;;;;14.22;100.00;102314.78;5088366;28;20035;-55
2022/05/01 05:34:20;;;;;;;35.27;18.10;;;;;;;14.84;100.00;102320.84;5077873;28;20278;-51
2022/05/01 05:36:45;;;;;;;30.40;16.30;;;;;;;15.12;95.44;102328.22;5090596;28;20092;-52
2022/05/01 05:39:11;;;;;;;32.20;16.67;;;;;;;14.77;98.16;102327.00;5074471;28;20021;-52
2022/05/01 05:41:36;;;;;;;26.77;15.50;;;;;;;14.59;100.00;102332.72;5085544;28;20028;-54
2022/05/01 05:44:02;;;;;;;32.10;17.23;;;;;;;14.82;99.52;102333.69;5079788;28;20041;-54
2022/05/01 05:46:28;;;;;;;28.92;15.45;;;;;;;14.66;100.00;102329.31;5076152;28;20100;-53
2022/05/01 05:48:53;;;;;;;35.83;16.17;;;;;;;14.70;100.00;102330.59;5088819;28;20045;-54
2022/05/01 05:51:19;;;;;;;31.83;15.13;;;;;;;14.75;100.00;102339.78;5068583;28;20036;-55
2022/05/01 05:53:44;;;;;;;27.20;15.43;;;;;;;14.83;100.00;102336.16;5068427;28;20353;-54
2022/05/01 05:56:10;;;;;;;26.50;15.73;;;;;;;14.97;100.00;102342.56;5068445;28;20044;-55
2022/05/01 05:58:35;;;;;;;27.23;14.27;;;;;;;15.87;92.17;102341.44;5066057;28;20039;-54
2022/05/01 06:01:01;;;;;;;25.10;14.67;;;;;;;15.37;96.26;102341.38;5068571;28;20021;-55
2022/05/01 06:03:27;;;;;;;24.60;14.45;;;;;;;15.52;94.04;102338.63;5061305;28;20034;-54
2022/05/01 06:05:52;;;;;;;30.97;14.30;;;;;;;15.60;93.93;102344.72;5059744;28;20075;-54
2022/05/01 06:08:18;;;;;;;24.27;14.17;;;;;;;15.61;92.28;102348.25;5058825;28;20060;-55
2022/05/01 06:10:43;;;;;;;25.00;14.63;;;;;;;15.76;91.03;102345.50;5067281;28;20269;-54
2022/05/01 06:13:08;;;;;;;24.43;13.70;;;;;;;15.86;89.40;102348.69;5065444;28;20036;-52
2022/05/01 06:15:34;;;;;;;25.90;13.23;;;;;;;16.10;88.66;102351.22;5070806;28;20032;-53
2022/05/01 06:18:00;;;;;;;24.98;14.32;;;;;;;15.94;87.98;102352.34;5067960;28;20282;-52
2022/05/01 06:20:26;;;;;;;27.17;13.80;;;;;;;16.05;87.39;102352.63;5072228;28;20040;-53
2022/05/01 06:22:52;;;;;;;22.90;13.27;;;;;;;16.10;86.98;102357.44;5068758;28;20066;-55
2022/05/01 06:25:17;;;;;;;23.23;13.23;;;;;;;16.27;85.01;102365.25;5065507;28;20029;-55
2022/05/01 06:27:43;;;;;;;23.10;13.25;;;;;;;16.41;83.29;102361.63;5062971;28;20352;-53
2022/05/01 06:30:12;;;;;;;24.50;13.03;;;;;;;16.49;82.19;102361.47;5060719;28;20049;-55
2022/05/01 06:32:41;;;;;;;20.95;12.30;;;;;;;16.62;80.92;102359.88;5089803;28;20293;-54
2022/05/01 06:35:07;;;;;;;24.95;12.57;;;;;;;16.73;78.73;102353.09;5080817;28;20048;-52
2022/05/01 06:37:38;;;;;;;20.50;11.40;;;;;;;16.81;77.74;102362.88;5083452;28;20056;-52
2022/05/01 06:40:05;;;;;;;23.42;12.85;;;;;;;16.89;77.36;102360.84;5073842;28;20029;-55
2022/05/01 06:42:33;;;;;;;19.42;11.85;;;;;;;17.00;75.81;102364.88;5090116;28;20036;-52
2022/05/01 06:44:58;;;;;;;17.33;10.23;;;;;;;16.91;73.80;102366.06;5079286;28;20101;-54
2022/05/01 06:47:25;;;;;;;15.20;9.07;;;;;;;16.90;67.47;102361.69;5084368;28;20063;-56
2022/05/01 06:49:50;;;;;;;14.23;8.90;;;;;;;16.83;67.17;102369.75;5073356;28;20049;-52
2022/05/01 06:52:23;;;;;;;15.95;9.13;;;;;;;17.01;71.51;102363.84;5089861;28;20280;-56
2022/05/01 06:54:52;;;;;;;17.67;9.95;;;;;;;17.09;68.99;102365.53;5061914;28;20063;-55
2022/05/01 06:57:17;;;;;;;16.73;10.40;;;;;;;17.09;67.82;102356.59;5085406;28;20092;-56
2022/05/01 06:59:43;;;;;;;14.10;7.23;;;;;;;17.20;63.41;102358.72;5072818;28;20040;-54
2022/05/01 07:02:08;;;;;;;19.93;11.87;;;;;;;17.24;66.34;102364.56;5088708;28;20120;-56
2022/05/01 07:04:34;;;;;;;13.97;8.83;;;;;;;17.49;63.38;102367.50;5076855;28;20063;-56
2022/05/01 07:06:59;;;;;;;19.42;12.00;;;;;;;17.88;66.81;102357.81;5088121;28;20029;-57
2022/05/01 07:09:24;;;;;;;23.27;12.17;;;;;;;17.69;66.67;102359.47;5082348;28;20467;-55
2022/05/01 07:11:50;;;;;;;18.35;11.95;;;;;;;17.97;66.01;102363.00;5080484;28;20036;-57
2022/05/01 07:14:16;;;;;;;19.03;11.43;;;;;;;18.17;65.17;102355.72;5080059;28;20052;-56
2022/05/01 07:16:41;;;;;;;21.13;11.35;;;;;;;18.29;64.25;102358.63;5064506;28;20113;-54
2022/05/01 07:19:07;;;;;;;22.57;12.13;;;;;;;18.36;63.89;102363.22;5060515;28;20056;-54
2022/05/01 07:21:32;;;;;;;25.13;10.50;;;;;;;18.09;63.74;102364.09;5069335;28;20037;-56
2022/05/01 07:23:58;;;;;;;18.00;10.70;;;;;;;18.45;63.02;102362.81;5064686;28;20484;-56
2022/05/01 07:26:25;;;;;;;19.97;12.80;;;;;;;18.69;61.65;102356.91;5059473;28;20044;-54
2022/05/01 07:28:51;;;;;;;19.17;10.87;;;;;;;18.73;61.06;102358.97;5062451;28;20282;-56
2022/05/01 07:31:17;;;;;;;25.93;11.20;;;;;;;18.81;61.01;102366.03;5065428;28;20286;-55
2022/05/01 07:33:42;;;;;;;18.63;11.03;;;;;;;18.86;60.58;102358.09;5064429;28;20270;-55
2022/05/01 07:36:08;;;;;;;17.40;11.10;;;;;;;18.83;60.38;102361.25;5069873;28;20278;-56
2022/05/01 07:38:33;;;;;;;22.17;11.97;;;;;;;18.97;59.50;102358.47;5062890;28;20281;-56
2022/05/01 07:40:59;;;;;;;22.13;11.73;;;;;;;18.97;59.33;102366.59;5070494;28;20277;-55
2022/05/01 07:43:24;;;;;;;18.33;11.03;;;;;;;18.98;57.86;102366.41;5062340;28;20289;-54
2022/05/01 07:45:50;;;;;;;20.13;11.20;;;;;;;19.02;57.27;102361.38;5075831;28;20112;-54
2022/05/01 07:48:15;;;;;;;14.70;9.13;;;;;;;19.02;56.75;102364.09;5069555;28;20046;-58
2022/05/01 07:50:41;;;;;;;20.77;9.07;;;;;;;19.15;56.13;102366.75;5077391;28;20055;-53
2022/05/01 07:53:06;;;;;;;21.88;10.73;;;;;;;19.23;56.60;102368.41;5079570;28;20035;-57
2022/05/01 07:55:32;;;;;;;19.92;10.07;;;;;;;19.14;56.17;102361.53;5086081;28;20100;-57
2022/05/01 07:57:58;;;;;;;10.93;6.57;;;;;;;19.08;51.79;102357.84;5089497;28;20063;-54
2022/05/01 08:00:24;;;;;;;14.98;9.52;;;;;;;18.84;54.26;102359.34;5079380;28;20281;-57
2022/05/01 08:05:34;;;;;;;18.70;8.40;;;;;;;19.31;51.18;102353.75;5086326;28;20103;-54
2022/05/01 08:07:59;;;;;;;10.67;7.03;;;;;;;18.95;50.89;102355.97;5082453;28;20286;-55
2022/05/01 08:10:25;;;;;;;17.43;9.87;;;;;;;19.44;52.13;102359.09;5092463;28;20285;-56
2022/05/01 08:12:51;;;;;;;17.30;9.80;;;;;;;19.50;50.99;102362.81;5080001;28;20028;-52
2022/05/01 08:15:18;;;;;;;15.88;8.90;;;;;;;19.83;49.21;102356.31;5088586;28;20036;-54
2022/05/01 08:17:45;;;;;;;14.67;8.87;;;;;;;20.07;49.15;102359.31;5087258;28;20037;-54
2022/05/01 08:23:06;;;;;;;12.97;7.43;;;;;;;20.40;46.48;102355.44;5065136;28;20293;-54
2022/05/01 08:25:32;;;;;;;16.70;8.43;;;;;;;20.37;47.81;102355.88;5086159;28;20270;-53
2022/05/01 08:27:57;;;;;;;15.35;9.05;;;;;;;20.63;47.52;102359.38;5088695;28;20301;-56
2022/05/01 08:30:24;;;;;;;16.00;9.23;;;;;;;21.24;46.24;102359.47;5077980;28;20052;-57
2022/05/01 08:32:50;;;;;;;14.13;7.28;;;;;;;21.20;45.63;102369.97;5091771;28;20044;-56
2022/05/01 08:35:15;;;;;;;10.18;5.88;;;;;;;20.98;44.02;102361.47;5082844;28;20171;-55
2022/05/01 08:37:40;;;;;;;14.15;8.00;;;;;;;21.16;45.50;102351.63;5084525;28;20096;-55
2022/05/01 08:40:08;;;;;;;14.13;7.80;;;;;;;21.46;45.08;102356.25;5075238;28;20053;-59
2022/05/01 08:42:38;;;;;;;16.40;9.07;;;;;;;21.43;44.33;102357.53;5092061;28;20044;-56
2022/05/01 08:45:09;;;;;;;12.57;7.50;;;;;;;21.85;42.92;102351.25;5081251;28;20295;-57
2022/05/01 08:47:42;;;;;;;12.60;7.43;;;;;;;22.00;42.40;102349.97;5085370;28;20354;-55
2022/05/01 08:50:11;;;;;;;10.00;6.33;;;;;;;21.77;42.34;102351.59;5089489;28;20269;-53
2022/05/01 08:52:38;;;;;;;13.23;8.10;;;;;;;21.83;43.03;102345.22;5078553;28;20300;-57
2022/05/01 08:55:08;;;;;;;15.87;7.40;;;;;;;22.32;41.49;102345.00;5089385;28;20357;-56
2022/05/01 08:57:34;;;;;;;12.50;6.97;;;;;;;22.87;40.20;102348.34;5084710;28;20293;-56
2022/05/01 09:00:00;;;;;;;10.63;6.22;;;;;;;22.80;39.28;102344.09;5081092;28;20282;-56
2022/05/01 09:02:25;;;;;;;12.57;6.10;;;;;;;23.13;38.18;102348.03;5091483;28;20044;-57
2022/05/01 09:04:52;;;;;;;11.63;6.85;;;;;;;23.41;37.88;102355.41;5079064;28;20281;-57
2022/05/01 09:07:18;;;;;;;15.88;7.00;;;;;;;23.12;37.70;102346.38;5087285;28;20032;-57
2022/05/01 09:09:43;;;;;;;10.57;5.72;;;;;;;23.44;36.89;102345.88;5074953;28;20040;-57
2022/05/01 09:14:54;;;;;;;9.17;5.70;;;;;;;24.36;34.91;102345.69;5063788;28;20032;-57
2022/05/01 09:17:21;;;;;;;9.25;5.22;;;;;;;24.97;33.71;102350.28;5086570;28;20064;-55
2022/05/01 09:19:53;;;;;;;9.67;5.67;;;;;;;25.42;33.18;102351.00;5083561;28;20040;-55
2022/05/01 09:22:21;;;;;;;10.03;5.83;;;;;;;25.42;32.73;102353.75;5072935;28;20020;-56
2022/05/01 09:24:52;;;;;;;10.90;5.87;;;;;;;25.14;33.34;102354.81;5076631;28;20097;-56
2022/05/01 09:27:31;;;;;;;9.70;5.57;;;;;;;25.32;33.06;102357.22;5086541;28;20097;-56
2022/05/01 09:30:07;;;;;;;13.00;5.93;;;;;;;25.30;32.71;102359.38;5074654;28;20041;-53
2022/05/01 09:32:38;;;;;;;12.43;6.00;;;;;;;25.56;32.31;102359.63;5090859;28;20039;-56
2022/05/01 09:35:11;;;;;;;10.83;5.40;;;;;;;26.25;30.75;102353.59;5074635;28;20033;-56
2022/05/01 09:37:37;;;;;;;9.00;5.03;;;;;;;26.91;29.61;102358.56;5084550;28;20041;-55
2022/05/01 09:40:03;;;;;;;9.77;5.90;;;;;;;27.13;29.00;102363.03;5080306;28;20100;-55
2022/05/01 09:42:33;;;;;;;8.23;4.63;;;;;;;27.84;27.74;102363.34;5090330;28;20392;-56
2022/05/01 09:45:06;;;;;;;9.43;4.70;;;;;;;28.15;27.96;102360.59;5079100;28;20029;-55
2022/05/01 09:47:43;;;;;;;17.40;10.77;;;;;;;28.88;25.50;102358.38;5084742;28;20044;-57
2022/05/01 09:50:11;;;;;;;16.33;8.33;;;;;;;29.67;24.74;102361.44;5073690;28;20117;-58
2022/05/01 09:53:00;;;;;;;15.67;8.43;;;;;;;30.38;24.71;102359.06;5090701;28;20040;-55
2022/05/01 09:55:29;;;;;;;8.23;4.97;;;;;;;31.25;22.95;102360.94;5082500;28;20040;-57
2022/05/01 09:58:06;;;;;;;13.18;6.97;;;;;;;30.78;22.81;102352.50;5081420;28;20043;-57
2022/05/01 10:00:46;;;;;;;7.90;5.43;;;;;;;30.89;23.95;102352.06;5074492;28;20031;-55
2022/05/01 10:03:22;;;;;;;12.25;7.15;;;;;;;30.83;22.80;102346.91;5087749;28;20044;-57
2022/05/01 10:05:50;;;;;;;9.13;4.43;;;;;;;30.61;22.06;102353.84;5085664;28;20048;-55
2022/05/01 10:08:18;;;;;;;8.52;3.88;;;;;;;30.32;23.30;102358.28;5078238;28;20123;-58
2022/05/01 10:10:46;;;;;;;8.07;4.60;;;;;;;29.80;24.00;102352.50;5090669;28;20051;-56
2022/05/01 10:13:13;;;;;;;7.22;4.32;;;;;;;29.01;23.53;102351.41;5079696;28;20029;-58
2022/05/01 10:15:39;;;;;;;8.10;3.90;;;;;;;29.16;23.00;102350.47;5083352;28;20064;-57
2022/05/01 10:18:05;;;;;;;12.37;6.00;;;;;;;29.45;22.64;102348.94;5087441;28;20036;-51
2022/05/01 10:20:33;;;;;;;8.07;4.77;;;;;;;29.94;22.18;102351.78;5074027;28;20033;-59
2022/05/01 10:22:59;;;;;;;7.20;4.70;;;;;;;30.18;22.13;102349.91;5068481;28;20055;-54
2022/05/01 10:25:25;;;;;;;9.35;4.90;;;;;;;30.13;22.28;102349.16;5060142;28;20056;-55
2022/05/01 10:28:33;;;;;;;7.80;4.77;;;;;;;30.25;22.26;102348.75;5067426;28;20068;-58
2022/05/01 10:34:21;;;;;;;8.17;3.63;;;;;;;29.76;21.60;102343.16;5079994;28;20033;-58
2022/05/01 10:37:00;;;;;;;6.40;3.87;;;;;;;29.69;21.17;102343.50;5089782;28;20025;-56
2022/05/01 10:39:36;;;;;;;6.20;3.83;;;;;;;29.51;21.64;102335.94;5081836;28;20064;-57
2022/05/01 10:42:02;;;;;;;11.83;5.07;;;;;;;29.81;22.02;102343.09;5080265;28;20090;-56
2022/05/01 10:44:39;;;;;;;6.40;4.23;;;;;;;29.70;21.62;102339.63;5072760;28;20276;-57
2022/05/01 10:47:13;;;;;;;9.63;4.53;;;;;;;29.37;22.28;102335.75;5079104;28;20040;-57
2022/05/01 10:49:47;;;;;;;6.73;4.60;;;;;;;29.55;21.99;102337.00;5083725;28;20073;-56
2022/05/01 10:52:19;;;;;;;7.13;4.00;;;;;;;28.88;22.07;102332.78;5087901;28;20040;-57
2022/05/01 10:55:04;;;;;;;7.07;4.07;;;;;;;28.70;22.76;102320.47;5079719;28;20040;-55
2022/05/01 10:57:30;;;;;;;8.23;4.27;;;;;;;29.19;22.34;102324.31;5087894;28;20040;-58
2022/05/01 11:00:06;;;;;;;6.73;4.30;;;;;;;29.48;22.03;102326.31;5089181;28;20062;-56
2022/05/01 11:02:38;;;;;;;6.75;4.20;;;;;;;29.97;21.78;102313.44;5080911;28;20036;-57
2022/05/01 11:05:05;;;;;;;6.73;4.17;;;;;;;29.72;21.87;102322.78;5082224;28;20064;-53
2022/05/01 11:07:34;;;;;;;7.33;4.53;;;;;;;29.48;22.21;102315.28;5067463;28;20101;-57
2022/05/01 11:10:00;;;;;;;16.97;9.20;;;;;;;28.90;22.07;102312.09;5065380;28;20115;-55
2022/05/01 11:12:26;;;;;;;;;;;;;;;29.26;22.34;102313.78;5071114;28;20040;-57
2022/05/01 11:14:54;;;;;;;11.35;6.57;;;;;;;29.09;22.03;102308.69;5073240;28;19924;-57
2022/05/01 11:17:34;;;;;;;19.37;4.93;;;;;;;29.09;21.84;102305.13;5066183;28;20036;-56
2022/05/01 11:20:04;;;;;;;13.77;7.23;;;;;;;29.29;22.05;102302.19;5066807;28;20124;-54
2022/05/01 11:22:30;;;;;;;11.17;5.70;;;;;;;29.32;21.82;102298.03;5071547;28;20047;-58
2022/05/01 11:24:55;;;;;;;;;;;;;;;29.60;21.60;102293.69;5073717;28;20064;-55
2022/05/01 11:27:22;;;;;;;8.37;4.50;;;;;;;29.73;21.27;102294.09;5070835;28;19913;-55
2022/05/01 11:30:06;;;;;;;8.43;4.83;;;;;;;30.56;20.44;102293.97;5066856;28;20045;-57
2022/05/01 11:32:50;;;;;;;6.67;4.00;;;;;;;31.26;20.36;102296.31;5075194;28;20025;-53
2022/05/01 11:35:17;;;;;;;7.30;5.03;;;;;;;30.88;20.23;102286.91;5075788;28;20040;-56
2022/05/01 11:37:52;;;;;;;8.43;4.70;;;;;;;30.28;20.58;102287.47;5072652;28;20097;-56